^^
Saratoga-Weather Station Historical Data
Daily Summary for September 29, 2021 Units:  Metric    English   Both
Daily Weekly Monthly Yearly Custom
  High: Low: Average:
Temperature: 15.8 °C 7.7 °C 11.3 °C
Dew Point: 12.5 °C 6.3 °C 8.8 °C
Humidity: 97% 58% 86%
Wind Speed: 24.1km/h 0km/h 4.8km/h
Wind Gust: 35.4km/h - -
Wind- - West
Pressure: 1026.8 hPa 1016.9 hPa -
Precipitation: 3.3 mm    
Historical Graphs
 
 
Tabular Data for September 29, 2021
Time Temperature Dew Point Pressure Wind Wind Speed Wind Gust Humidity Rainfall Rate (Hourly) solar
00:01 9.8 °C 8.9 °C 1018.6 hPa Calm     94% 0.0 mm 0 W/m2
00:06 9.8 °C 9 °C 1018.6 hPa Calm     95% 0.0 mm 0 W/m2
00:11 9.7 °C 8.9 °C 1018.6 hPa Calm     95% 0.0 mm 0 W/m2
00:16 9.7 °C 8.9 °C 1018.6 hPa Calm     95% 0.0 mm 0 W/m2
00:21 9.6 °C 8.8 °C 1018.3 hPa Calm     95% 0.0 mm 0 W/m2
00:26 9.6 °C 8.8 °C 1018.6 hPa Calm     95% 0.0 mm 0 W/m2
00:31 9.5 °C 8.7 °C 1018.3 hPa Calm     95% 0.0 mm 0 W/m2
00:36 9.4 °C 8.6 °C 1018.6 hPa Calm     95% 0.0 mm 0 W/m2
00:41 9.4 °C 8.6 °C 1018.3 hPa Calm     95% 0.0 mm 0 W/m2
00:46 9.3 °C 8.5 °C 1018.3 hPa Calm     95% 0.0 mm 0 W/m2
00:51 9.3 °C 8.5 °C 1018.3 hPa Calm     95% 0.0 mm 0 W/m2
00:56 9.3 °C 8.5 °C 1018.3 hPa Calm     95% 0.0 mm 0 W/m2
01:01 9.3 °C 8.5 °C 1018.3 hPa Calm     95% 0.0 mm 0 W/m2
01:06 9.3 °C 8.5 °C 1018.3 hPa Calm     95% 0.0 mm 0 W/m2
01:11 9.3 °C 8.5 °C 1018.3 hPa Calm     95% 0.0 mm 0 W/m2
01:16 9.2 °C 8.4 °C 1018.3 hPa Calm     95% 0.0 mm 0 W/m2
01:21 9.2 °C 8.4 °C 1018.3 hPa Calm     95% 0.0 mm 0 W/m2
01:26 9.2 °C 8.4 °C 1018.3 hPa Calm     95% 0.0 mm 0 W/m2
01:31 9.2 °C 8.4 °C 1018.3 hPa Calm     95% 0.0 mm 0 W/m2
01:36 9.1 °C 8.3 °C 1018.0 hPa Calm     95% 0.0 mm 0 W/m2
01:41 9.1 °C 8.5 °C 1018.0 hPa Calm     96% 0.0 mm 0 W/m2
01:46 9.1 °C 8.5 °C 1018.3 hPa Calm     96% 0.0 mm 0 W/m2
01:51 9.1 °C 8.5 °C 1018.0 hPa Calm     96% 0.0 mm 0 W/m2
01:56 9.1 °C 8.5 °C 1018.0 hPa Calm     96% 0.0 mm 0 W/m2
02:01 9.1 °C 8.5 °C 1018.0 hPa Calm     96% 0.0 mm 0 W/m2
02:06 9.1 °C 8.5 °C 1018.0 hPa Calm     96% 0.0 mm 0 W/m2
02:11 9.1 °C 8.5 °C 1018.0 hPa Calm     96% 0.0 mm 0 W/m2
02:16 9.1 °C 8.5 °C 1018.0 hPa Calm     96% 0.0 mm 0 W/m2
02:21 9.1 °C 8.5 °C 1018.0 hPa Calm     96% 0.0 mm 0 W/m2
02:26 9.1 °C 8.5 °C 1018.0 hPa Calm     96% 0.0 mm 0 W/m2
02:31 9 °C 8.4 °C 1018.0 hPa Calm     96% 0.0 mm 0 W/m2
02:36 8.9 °C 8.3 °C 1018.0 hPa Calm     96% 0.0 mm 0 W/m2
02:41 8.9 °C 8.3 °C 1018.0 hPa Calm     96% 0.0 mm 0 W/m2
02:46 8.9 °C 8.3 °C 1018.0 hPa Calm     96% 0.0 mm 0 W/m2
02:51 8.9 °C 8.3 °C 1018.0 hPa Calm     96% 0.0 mm 0 W/m2
02:56 8.8 °C 8.2 °C 1018.0 hPa Calm     96% 0.0 mm 0 W/m2
03:01 8.9 °C 8.3 °C 1018.0 hPa Calm     96% 0.0 mm 0 W/m2
03:06 8.9 °C 8.3 °C 1018.0 hPa Calm     96% 0.0 mm 0 W/m2
03:11 9 °C 8.4 °C 1017.6 hPa Calm     96% 0.0 mm 0 W/m2
03:16 9 °C 8.4 °C 1017.6 hPa Calm     96% 0.0 mm 0 W/m2
03:21 9 °C 8.4 °C 1017.6 hPa Calm     96% 0.0 mm 0 W/m2
03:26 9.1 °C 8.5 °C 1017.6 hPa Calm     96% 0.0 mm 0 W/m2
03:31 9 °C 8.4 °C 1017.6 hPa Calm     96% 0.0 mm 0 W/m2
03:36 9 °C 8.4 °C 1017.6 hPa Calm     96% 0.0 mm 0 W/m2
03:41 9 °C 8.4 °C 1017.6 hPa Calm     96% 0.0 mm 0 W/m2
03:46 8.9 °C 8.3 °C 1017.6 hPa Calm     96% 0.0 mm 0 W/m2
03:51 8.9 °C 8.3 °C 1017.6 hPa Calm     96% 0.0 mm 0 W/m2
03:56 8.8 °C 8.2 °C 1017.6 hPa Calm     96% 0.0 mm 0 W/m2
04:01 8.8 °C 8.2 °C 1017.3 hPa Calm     96% 0.0 mm 0 W/m2
04:06 8.7 °C 8.1 °C 1017.3 hPa Calm     96% 0.0 mm 0 W/m2
04:11 8.6 °C 8 °C 1017.3 hPa Calm     96% 0.0 mm 0 W/m2
04:16 8.6 °C 8 °C 1017.3 hPa Calm     96% 0.0 mm 0 W/m2
04:21 8.4 °C 7.8 °C 1017.3 hPa Calm     96% 0.0 mm 0 W/m2
04:26 8.4 °C 7.8 °C 1017.3 hPa Calm     96% 0.0 mm 0 W/m2
04:31 8.4 °C 7.8 °C 1017.3 hPa Calm     96% 0.0 mm 0 W/m2
04:36 8.3 °C 7.7 °C 1017.3 hPa Calm     96% 0.0 mm 0 W/m2
04:41 8.3 °C 7.7 °C 1017.3 hPa Calm     96% 0.0 mm 0 W/m2
04:46 8.3 °C 7.7 °C 1017.3 hPa Calm     96% 0.0 mm 0 W/m2
04:51 8.2 °C 7.6 °C 1017.3 hPa Calm     96% 0.0 mm 0 W/m2
04:56 8.1 °C 7.5 °C 1016.9 hPa Calm     96% 0.0 mm 0 W/m2
05:01 8.1 °C 7.5 °C 1017.3 hPa Calm     96% 0.0 mm 0 W/m2
05:06 8 °C 7.4 °C 1017.3 hPa Calm     96% 0.0 mm 0 W/m2
05:11 7.9 °C 7.3 °C 1017.3 hPa Calm     96% 0.0 mm 0 W/m2
05:16 7.8 °C 7.2 °C 1017.3 hPa Calm     96% 0.0 mm 0 W/m2
05:21 7.8 °C 7.2 °C 1017.3 hPa Calm     96% 0.0 mm 0 W/m2
05:26 7.7 °C 7.1 °C 1017.3 hPa Calm     96% 0.0 mm 0 W/m2
05:31 7.7 °C 7.1 °C 1017.3 hPa Calm     96% 0.0 mm 0 W/m2
05:36 7.7 °C 7.1 °C 1017.3 hPa Calm     96% 0.0 mm 0 W/m2
05:41 7.7 °C 7.1 °C 1017.3 hPa Calm     96% 0.0 mm 0 W/m2
05:46 7.8 °C 7.2 °C 1017.3 hPa Calm     96% 0.0 mm 0 W/m2
05:51 7.9 °C 7.3 °C 1017.3 hPa Calm     96% 0.0 mm 0 W/m2
05:56 8 °C 7.4 °C 1017.3 hPa Calm     96% 0.0 mm 0 W/m2
06:01 8.2 °C 7.8 °C 1017.3 hPa Calm     97% 0.0 mm 0 W/m2
06:06 8.3 °C 7.9 °C 1016.9 hPa Calm     97% 0.0 mm 0 W/m2
06:11 8.3 °C 7.9 °C 1016.9 hPa Calm     97% 0.0 mm 0 W/m2
06:16 8.4 °C 8 °C 1017.3 hPa Calm     97% 0.0 mm 0 W/m2
06:21 8.4 °C 8 °C 1016.9 hPa Calm     97% 0.0 mm 0 W/m2
06:26 8.3 °C 7.9 °C 1016.9 hPa Calm     97% 0.0 mm 0 W/m2
06:31 8.3 °C 7.9 °C 1016.9 hPa Calm   1.6 km/h 97% 0.0 mm 0 W/m2
06:36 8.2 °C 7.6 °C 1016.9 hPa Calm   1.6 km/h 96% 0.0 mm 0 W/m2
06:41 8.3 °C 7.7 °C 1016.9 hPa East 3.2 km/h 3.2 km/h 96% 0.0 mm 0 W/m2
06:46 8.3 °C 7.9 °C 1016.9 hPa Calm     97% 0.0 mm 0 W/m2
06:51 8.3 °C 7.9 °C 1016.9 hPa Calm     97% 0.0 mm 0 W/m2
06:57 8.3 °C 7.9 °C 1017.3 hPa Calm     97% 0.0 mm 0 W/m2
07:02 8.4 °C 8 °C 1017.3 hPa Calm   3.2 km/h 97% 0.0 mm 0 W/m2
07:07 8.4 °C 8 °C 1016.9 hPa East 1.4 km/h 1.6 km/h 97% 0.0 mm 0 W/m2
07:12 8.5 °C 8.1 °C 1016.9 hPa Calm   1.6 km/h 97% 0.0 mm 0 W/m2
07:17 8.8 °C 8.3 °C 1016.9 hPa SE 1.4 km/h 4.8 km/h 97% 0.0 mm 0 W/m2
07:22 9.2 °C 8.7 °C 1016.9 hPa South 3.2 km/h 3.2 km/h 97% 0.0 mm 0 W/m2
07:27 9.7 °C 9.2 °C 1016.9 hPa NNW 3.2 km/h 4.8 km/h 97% 0.0 mm 0 W/m2
07:32 10.1 °C 9.6 °C 1016.9 hPa Calm   1.6 km/h 97% 0.2 mm 0 W/m2
07:37 10.2 °C 9.7 °C 1016.9 hPa Calm   3.2 km/h 97% 0.2 mm 0 W/m2
07:42 10.3 °C 9.8 °C 1016.9 hPa Calm   3.2 km/h 97% 0.2 mm 0 W/m2
07:47 10.4 °C 9.9 °C 1016.9 hPa WSW 1.4 km/h 6.4 km/h 97% 0.2 mm 0 W/m2
07:52 10.5 °C 10 °C 1016.9 hPa NE 1.4 km/h 3.2 km/h 97% 0.2 mm 0 W/m2
07:57 10.6 °C 10.1 °C 1016.9 hPa ESE 1.4 km/h 4.8 km/h 97% 0.2 mm 0 W/m2
08:02 10.7 °C 10.1 °C 1017.3 hPa Calm   3.2 km/h 96% 0.2 mm 5 W/m2
08:07 10.8 °C 10.2 °C 1016.9 hPa Calm   3.2 km/h 96% 0.2 mm 12 W/m2
08:12 10.9 °C 10.1 °C 1016.9 hPa WSW 1.4 km/h 3.2 km/h 95% 0.2 mm 11 W/m2
08:17 10.9 °C 10.1 °C 1016.9 hPa Calm   3.2 km/h 95% 0.2 mm 14 W/m2
08:22 11 °C 10.2 °C 1017.3 hPa North 1.4 km/h 3.2 km/h 95% 0.2 mm 19 W/m2
08:27 11.1 °C 10.3 °C 1017.3 hPa Calm   1.6 km/h 95% 0.2 mm 30 W/m2
08:32 11.2 °C 10.3 °C 1017.3 hPa NNW 4.7 km/h 4.8 km/h 94% 0.0 mm 37 W/m2
08:37 11.4 °C 10.5 °C 1017.3 hPa NW 3.2 km/h 6.4 km/h 94% 0.0 mm 37 W/m2
08:42 11.6 °C 10.7 °C 1017.3 hPa NNW 8 km/h 8 km/h 94% 0.0 mm 46 W/m2
08:47 11.7 °C 10.6 °C 1017.3 hPa NW 3.2 km/h 4.8 km/h 93% 0.0 mm 53 W/m2
08:52 11.8 °C 10.5 °C 1017.3 hPa North 6.4 km/h 9.7 km/h 92% 0.0 mm 63 W/m2
08:57 12 °C 10.7 °C 1017.3 hPa NNW 6.4 km/h 6.4 km/h 92% 0.0 mm 63 W/m2
09:02 12.1 °C 10.8 °C 1017.3 hPa ENE 3.2 km/h 8 km/h 92% 0.0 mm 67 W/m2
09:07 12.2 °C 10.8 °C 1017.3 hPa West 1.4 km/h 4.8 km/h 91% 0.0 mm 58 W/m2
09:12 12.3 °C 10.9 °C 1017.3 hPa NE 3.2 km/h 4.8 km/h 91% 0.0 mm 69 W/m2
09:17 12.3 °C 10.9 °C 1017.3 hPa NW 3.2 km/h 14.5 km/h 91% 0.0 mm 63 W/m2
09:22 12.4 °C 10.8 °C 1017.3 hPa West 3.2 km/h 8 km/h 90% 0.0 mm 70 W/m2
09:27 12.6 °C 11 °C 1017.3 hPa ENE 4.7 km/h 11.3 km/h 90% 0.0 mm 97 W/m2
09:32 12.7 °C 11.1 °C 1017.3 hPa NNW 1.4 km/h 8 km/h 90% 0.0 mm 83 W/m2
09:37 12.8 °C 11.2 °C 1017.3 hPa Calm   14.5 km/h 90% 0.0 mm 58 W/m2
09:42 12.8 °C 11 °C 1017.3 hPa North 6.4 km/h 8 km/h 89% 0.0 mm 79 W/m2
09:47 12.9 °C 11.1 °C 1017.3 hPa NE 1.4 km/h 9.7 km/h 89% 0.0 mm 327 W/m2
09:52 13.1 °C 11.3 °C 1017.3 hPa WNW 6.4 km/h 11.3 km/h 89% 0.0 mm 142 W/m2
09:57 13.3 °C 11.5 °C 1017.3 hPa Calm   11.3 km/h 89% 0.0 mm 292 W/m2
10:02 13.4 °C 11.6 °C 1016.9 hPa NW 3.2 km/h 6.4 km/h 89% 0.0 mm 315 W/m2
10:07 13.7 °C 11.7 °C 1016.9 hPa WSW 4.7 km/h 14.5 km/h 88% 0.0 mm 332 W/m2
10:12 13.8 °C 11.7 °C 1016.9 hPa NNW 13 km/h 19.3 km/h 87% 0.0 mm 355 W/m2
10:17 13.9 °C 11.8 °C 1016.9 hPa NW 4.7 km/h 9.7 km/h 87% 0.0 mm 441 W/m2
10:22 14.2 °C 12.1 °C 1016.9 hPa NNW 4.7 km/h 14.5 km/h 87% 0.0 mm 439 W/m2
10:27 14.3 °C 12 °C 1016.9 hPa WNW 6.4 km/h 12.9 km/h 86% 0.0 mm 139 W/m2
10:32 14.3 °C 12 °C 1016.9 hPa NNE 4.7 km/h 11.3 km/h 86% 0.0 mm 100 W/m2
10:37 14.2 °C 11.9 °C 1016.9 hPa SSW 1.4 km/h 12.9 km/h 86% 0.0 mm 56 W/m2
10:42 14.1 °C 12 °C 1017.3 hPa West 4.7 km/h 9.7 km/h 87% 0.0 mm 46 W/m2
10:47 13.9 °C 11.8 °C 1016.9 hPa NW 3.2 km/h 8 km/h 87% 0.0 mm 35 W/m2
10:52 13.8 °C 11.8 °C 1017.3 hPa NW 3.2 km/h 6.4 km/h 88% 0.2 mm 21 W/m2
10:57 13.7 °C 11.9 °C 1017.3 hPa WNW 6.4 km/h 12.9 km/h 89% 1.3 mm 28 W/m2
11:02 13.4 °C 11.8 °C 1017.3 hPa NW 6.4 km/h 8 km/h 90% 1.5 mm 86 W/m2
11:07 13.4 °C 12 °C 1017.3 hPa NNW 1.4 km/h 12.9 km/h 91% 1.8 mm 137 W/m2
11:12 13.4 °C 12.1 °C 1017.3 hPa Calm   4.8 km/h 92% 1.8 mm 102 W/m2
11:17 13.4 °C 12.1 °C 1017.3 hPa NW 1.4 km/h 12.9 km/h 92% 1.8 mm 91 W/m2
11:22 13.3 °C 12 °C 1017.3 hPa WSW 7.9 km/h 11.3 km/h 92% 2.0 mm 88 W/m2
11:27 13.3 °C 12 °C 1017.3 hPa WNW 3.2 km/h 11.3 km/h 92% 2.3 mm 51 W/m2
11:32 13.2 °C 11.9 °C 1017.3 hPa West 11.1 km/h 11.3 km/h 92% 2.3 mm 97 W/m2
11:37 13.2 °C 11.9 °C 1017.3 hPa West 6.4 km/h 14.5 km/h 92% 2.3 mm 204 W/m2
11:42 13.4 °C 12.3 °C 1017.6 hPa WNW 3.2 km/h 11.3 km/h 93% 2.3 mm 339 W/m2
11:47 13.6 °C 12.5 °C 1017.6 hPa NW 6.4 km/h 8 km/h 93% 2.3 mm 250 W/m2
11:52 13.7 °C 12.4 °C 1017.6 hPa West 4.7 km/h 11.3 km/h 92% 2.3 mm 172 W/m2
11:57 13.6 °C 12.3 °C 1018.0 hPa West 6.4 km/h 12.9 km/h 92% 1.5 mm 111 W/m2
12:02 13.4 °C 12.1 °C 1018.0 hPa WNW 16.3 km/h 17.7 km/h 92% 1.3 mm 329 W/m2
12:07 13.6 °C 12.3 °C 1018.0 hPa West 6.4 km/h 17.7 km/h 92% 1.0 mm 707 W/m2
12:12 13.8 °C 12.4 °C 1018.0 hPa West 9.7 km/h 12.9 km/h 91% 1.0 mm 279 W/m2
12:17 13.8 °C 12.2 °C 1018.0 hPa West 13 km/h 19.3 km/h 90% 1.0 mm 515 W/m2
12:22 13.7 °C 11.9 °C 1018.0 hPa West 11.1 km/h 16.1 km/h 89% 0.8 mm 299 W/m2
12:27 13.7 °C 12.1 °C 1018.3 hPa West 9.7 km/h 19.3 km/h 90% 0.5 mm 666 W/m2
12:32 13.8 °C 12 °C 1018.3 hPa WSW 6.4 km/h 12.9 km/h 89% 0.5 mm 315 W/m2
12:37 13.7 °C 11.6 °C 1018.3 hPa WSW 7.9 km/h 19.3 km/h 87% 0.5 mm 250 W/m2
12:42 13.6 °C 11.5 °C 1018.3 hPa West 17.7 km/h 17.7 km/h 87% 0.5 mm 216 W/m2
12:47 13.5 °C 11.4 °C 1018.6 hPa West 6.4 km/h 19.3 km/h 87% 0.5 mm 214 W/m2
12:52 13.4 °C 11.3 °C 1018.6 hPa NW 24.1 km/h 24.1 km/h 87% 0.5 mm 250 W/m2
12:57 13.5 °C 11.6 °C 1018.6 hPa West 3.2 km/h 14.5 km/h 88% 0.2 mm 306 W/m2
13:02 13.6 °C 11.6 °C 1018.6 hPa West 4.7 km/h 12.9 km/h 88% 0.0 mm 243 W/m2
13:07 13.6 °C 11.5 °C 1019.0 hPa West 13 km/h 19.3 km/h 87% 0.0 mm 272 W/m2
13:12 13.7 °C 11.2 °C 1019.0 hPa West 14.3 km/h 19.3 km/h 85% 0.0 mm 608 W/m2
13:17 13.9 °C 11.1 °C 1019.0 hPa NW 6.4 km/h 20.9 km/h 83% 0.0 mm 617 W/m2
13:22 14.1 °C 10.9 °C 1019.0 hPa WSW 4.7 km/h 17.7 km/h 81% 0.0 mm 631 W/m2
13:27 14.1 °C 10.7 °C 1019.0 hPa West 11.1 km/h 17.7 km/h 80% 0.0 mm 214 W/m2
13:32 14.3 °C 11.3 °C 1019.0 hPa WNW 17.7 km/h 17.7 km/h 82% 0.0 mm 654 W/m2
13:37 14.5 °C 10.7 °C 1019.0 hPa WNW 14.3 km/h 24.1 km/h 78% 0.0 mm 691 W/m2
13:42 14.7 °C 10.7 °C 1019.0 hPa West 4.7 km/h 14.5 km/h 77% 0.0 mm 691 W/m2
13:47 15 °C 10.8 °C 1019.0 hPa NW 3.2 km/h 14.5 km/h 76% 0.0 mm 680 W/m2
13:52 15 °C 10.4 °C 1019.0 hPa NW 11.1 km/h 20.9 km/h 74% 0.0 mm 202 W/m2
13:57 14.8 °C 10.4 °C 1019.0 hPa WSW 7.9 km/h 20.9 km/h 75% 0.0 mm 137 W/m2
14:03 14.7 °C 10.3 °C 1019.0 hPa NW 6.4 km/h 20.9 km/h 75% 0.0 mm 137 W/m2
14:08 14.8 °C 10.4 °C 1019.0 hPa WNW 14.3 km/h 27.4 km/h 75% 0.0 mm 213 W/m2
14:13 14.8 °C 10.4 °C 1019.3 hPa SW 7.9 km/h 16.1 km/h 75% 0.0 mm 167 W/m2
14:18 14.7 °C 10.1 °C 1019.3 hPa WSW 9.7 km/h 24.1 km/h 74% 0.0 mm 56 W/m2
14:23 14.7 °C 10.1 °C 1019.3 hPa WSW 4.7 km/h 12.9 km/h 74% 0.0 mm 58 W/m2
14:28 14.7 °C 10.1 °C 1019.3 hPa West 11.1 km/h 14.5 km/h 74% 0.0 mm 51 W/m2
14:33 14.9 °C 10.5 °C 1019.3 hPa NW 3.2 km/h 11.3 km/h 75% 0.0 mm 76 W/m2
14:38 15.2 °C 10.4 °C 1019.3 hPa WSW 6.4 km/h 19.3 km/h 73% 0.0 mm 207 W/m2
14:43 15.4 °C 10.2 °C 1019.3 hPa WNW 13 km/h 14.5 km/h 71% 0.0 mm 406 W/m2
14:48 15.7 °C 10 °C 1019.3 hPa West 4.7 km/h 14.5 km/h 69% 0.0 mm 153 W/m2
14:53 15.7 °C 10 °C 1019.3 hPa WSW 7.9 km/h 8 km/h 69% 0.0 mm 86 W/m2
14:58 15.6 °C 9.9 °C 1019.3 hPa WSW 3.2 km/h 8 km/h 69% 0.0 mm 118 W/m2
15:03 15.5 °C 9.4 °C 1019.6 hPa West 13 km/h 14.5 km/h 67% 0.0 mm 114 W/m2
15:08 15.2 °C 9.3 °C 1019.6 hPa WNW 3.2 km/h 22.5 km/h 68% 0.0 mm 60 W/m2
15:13 14.9 °C 8.8 °C 1019.6 hPa WSW 14.3 km/h 16.1 km/h 67% 0.0 mm 93 W/m2
15:18 14.8 °C 8.3 °C 1019.6 hPa NNW 7.9 km/h 22.5 km/h 65% 0.0 mm 111 W/m2
15:23 14.7 °C 8.2 °C 1019.6 hPa NNW 7.9 km/h 24.1 km/h 65% 0.0 mm 113 W/m2
15:28 15 °C 8.5 °C 1019.6 hPa West 13 km/h 20.9 km/h 65% 0.0 mm 121 W/m2
15:33 15.3 °C 8.3 °C 1020.0 hPa West 11.1 km/h 24.1 km/h 63% 0.0 mm 90 W/m2
15:38 15.3 °C 8.3 °C 1020.0 hPa WNW 6.4 km/h 14.5 km/h 63% 0.0 mm 86 W/m2
15:43 15.2 °C 8.2 °C 1020.0 hPa WSW 17.7 km/h 17.7 km/h 63% 0.0 mm 113 W/m2
15:48 15.1 °C 8.6 °C 1020.0 hPa WNW 6.4 km/h 14.5 km/h 65% 0.0 mm 113 W/m2
15:53 15.3 °C 8.3 °C 1020.0 hPa SW 7.9 km/h 14.5 km/h 63% 0.0 mm 519 W/m2
15:58 15.6 °C 7.6 °C 1020.3 hPa West 9.7 km/h 12.9 km/h 59% 0.0 mm 515 W/m2
16:03 15.8 °C 7.6 °C 1020.3 hPa West 14.3 km/h 20.9 km/h 58% 0.0 mm 69 W/m2
16:08 15.4 °C 7.7 °C 1020.7 hPa WSW 14.3 km/h 17.7 km/h 60% 0.0 mm 72 W/m2
16:13 14.8 °C 6.9 °C 1020.7 hPa WSW 17.7 km/h 35.4 km/h 59% 0.0 mm 114 W/m2
16:18 14.2 °C 6.3 °C 1021.0 hPa NNW 20.9 km/h 30.6 km/h 59% 0.0 mm 149 W/m2
16:23 13.7 °C 6.3 °C 1021.0 hPa WNW 22.7 km/h 35.4 km/h 61% 0.0 mm 107 W/m2
16:28 13.2 °C 7.2 °C 1021.3 hPa WSW 7.9 km/h 20.9 km/h 67% 0.0 mm 100 W/m2
16:33 12.6 °C 7.9 °C 1021.3 hPa West 13 km/h 30.6 km/h 73% 0.0 mm 258 W/m2
16:38 12.3 °C 7.6 °C 1021.0 hPa WSW 4.7 km/h 19.3 km/h 73% 0.2 mm 392 W/m2
16:43 12.4 °C 7.9 °C 1021.0 hPa WNW 6.4 km/h 14.5 km/h 74% 0.2 mm 378 W/m2
16:48 12.6 °C 7.9 °C 1021.0 hPa WNW 4.7 km/h 19.3 km/h 73% 0.2 mm 371 W/m2
16:53 12.8 °C 8.1 °C 1021.0 hPa NW 6.4 km/h 12.9 km/h 73% 0.2 mm 380 W/m2
16:58 13.1 °C 8.4 °C 1021.0 hPa WSW 7.9 km/h 14.5 km/h 73% 0.2 mm 397 W/m2
17:03 13.2 °C 8.1 °C 1021.3 hPa WNW 13 km/h 12.9 km/h 71% 0.2 mm 193 W/m2
17:08 13.2 °C 7.6 °C 1021.3 hPa West 6.4 km/h 20.9 km/h 69% 0.2 mm 137 W/m2
17:13 13.2 °C 7.8 °C 1021.3 hPa WNW 4.7 km/h 11.3 km/h 70% 0.2 mm 105 W/m2
17:18 13.2 °C 8.1 °C 1021.3 hPa West 16.3 km/h 16.1 km/h 71% 0.2 mm 178 W/m2
17:23 13.2 °C 8.1 °C 1021.3 hPa WNW 4.7 km/h 22.5 km/h 71% 0.2 mm 127 W/m2
17:28 13.2 °C 8.3 °C 1021.7 hPa NW 7.9 km/h 14.5 km/h 72% 0.2 mm 114 W/m2
17:33 13.2 °C 8.3 °C 1021.7 hPa West 4.7 km/h 11.3 km/h 72% 0.2 mm 88 W/m2
17:38 13.2 °C 8.3 °C 1021.7 hPa West 6.4 km/h 14.5 km/h 72% 0.0 mm 151 W/m2
17:43 13.2 °C 8.3 °C 1021.7 hPa WSW 11.1 km/h 14.5 km/h 72% 0.0 mm 72 W/m2
17:48 13.2 °C 8.3 °C 1021.7 hPa WNW 4.7 km/h 12.9 km/h 72% 0.0 mm 127 W/m2
17:53 13.4 °C 8.7 °C 1022.0 hPa West 9.7 km/h 11.3 km/h 73% 0.0 mm 227 W/m2
17:58 13.3 °C 8.4 °C 1022.0 hPa West 6.4 km/h 9.7 km/h 72% 0.0 mm 46 W/m2
18:03 13.2 °C 8.5 °C 1022.0 hPa West 6.4 km/h 11.3 km/h 73% 0.0 mm 44 W/m2
18:08 13.1 °C 8.2 °C 1022.4 hPa West 11.1 km/h 17.7 km/h 72% 0.0 mm 53 W/m2
18:13 13 °C 8.1 °C 1022.4 hPa West 6.4 km/h 12.9 km/h 72% 0.0 mm 47 W/m2
18:18 13 °C 8.1 °C 1022.4 hPa West 6.4 km/h 17.7 km/h 72% 0.0 mm 53 W/m2
18:23 13.1 °C 8.2 °C 1022.4 hPa West 3.2 km/h 9.7 km/h 72% 0.0 mm 47 W/m2
18:28 13.1 °C 8.4 °C 1022.4 hPa West 4.7 km/h 11.3 km/h 73% 0.0 mm 44 W/m2
18:33 13 °C 8.3 °C 1022.4 hPa West 3.2 km/h 11.3 km/h 73% 0.0 mm 54 W/m2
18:38 13 °C 8.3 °C 1022.4 hPa West 1.4 km/h 6.4 km/h 73% 0.0 mm 49 W/m2
18:43 13 °C 8.5 °C 1022.4 hPa WNW 3.2 km/h 12.9 km/h 74% 0.0 mm 46 W/m2
18:48 13.1 °C 8.4 °C 1022.4 hPa WSW 3.2 km/h 17.7 km/h 73% 0.0 mm 28 W/m2
18:53 13.1 °C 8.2 °C 1022.7 hPa West 6.4 km/h 14.5 km/h 72% 0.0 mm 16 W/m2
18:58 13 °C 8.1 °C 1022.7 hPa WSW 7.9 km/h 17.7 km/h 72% 0.0 mm 14 W/m2
19:03 12.8 °C 7.5 °C 1022.7 hPa West 13 km/h 16.1 km/h 70% 0.0 mm 11 W/m2
19:08 12.7 °C 7.2 °C 1022.7 hPa West 11.1 km/h 16.1 km/h 69% 0.0 mm 11 W/m2
19:13 12.6 °C 6.8 °C 1023.0 hPa NNW 14.3 km/h 14.5 km/h 68% 0.0 mm 7 W/m2
19:18 12.4 °C 6.7 °C 1023.0 hPa WNW 13 km/h 14.5 km/h 68% 0.0 mm 5 W/m2
19:23 12.3 °C 6.6 °C 1023.4 hPa West 16.3 km/h 16.1 km/h 68% 0.0 mm 0 W/m2
19:28 12.2 °C 6.5 °C 1023.4 hPa WSW 13 km/h 14.5 km/h 68% 0.0 mm 0 W/m2
19:33 12.1 °C 6.6 °C 1023.4 hPa WNW 6.4 km/h 16.1 km/h 69% 0.0 mm 0 W/m2
19:38 11.9 °C 6.4 °C 1023.4 hPa West 4.7 km/h 16.1 km/h 69% 0.0 mm 0 W/m2
19:43 11.8 °C 6.5 °C 1023.4 hPa West 4.7 km/h 12.9 km/h 70% 0.0 mm 0 W/m2
19:48 11.7 °C 6.4 °C 1023.4 hPa WNW 11.1 km/h 12.9 km/h 70% 0.0 mm 0 W/m2
19:53 11.6 °C 6.5 °C 1023.7 hPa West 6.4 km/h 14.5 km/h 71% 0.0 mm 0 W/m2
19:58 11.4 °C 6.5 °C 1023.7 hPa WNW 11.1 km/h 16.1 km/h 72% 0.0 mm 0 W/m2
20:03 11.4 °C 6.7 °C 1023.7 hPa WSW 6.4 km/h 12.9 km/h 73% 0.0 mm 0 W/m2
20:08 11.3 °C 6.6 °C 1023.7 hPa West 9.7 km/h 16.1 km/h 73% 0.0 mm 0 W/m2
20:13 11.2 °C 6.7 °C 1023.7 hPa West 4.7 km/h 9.7 km/h 74% 0.0 mm 0 W/m2
20:18 11.1 °C 6.8 °C 1024.0 hPa WNW 4.7 km/h 17.7 km/h 75% 0.0 mm 0 W/m2
20:23 11 °C 6.9 °C 1024.0 hPa NW 6.4 km/h 11.3 km/h 76% 0.0 mm 0 W/m2
20:28 10.8 °C 6.7 °C 1024.0 hPa NW 4.7 km/h 17.7 km/h 76% 0.0 mm 0 W/m2
20:33 10.8 °C 6.9 °C 1024.0 hPa SW 9.7 km/h 11.3 km/h 77% 0.0 mm 0 W/m2
20:38 10.6 °C 6.9 °C 1024.0 hPa WSW 6.4 km/h 14.5 km/h 78% 0.0 mm 0 W/m2
20:44 10.5 °C 7 °C 1024.0 hPa WNW 7.9 km/h 8 km/h 79% 0.0 mm 0 W/m2
20:49 10.4 °C 7.1 °C 1024.4 hPa WNW 3.2 km/h 12.9 km/h 80% 0.0 mm 0 W/m2
20:54 10.3 °C 7.2 °C 1024.4 hPa West 9.7 km/h 9.7 km/h 81% 0.0 mm 0 W/m2
20:59 10.2 °C 7.1 °C 1024.4 hPa West 9.7 km/h 14.5 km/h 81% 0.0 mm 0 W/m2
21:04 10.2 °C 7.3 °C 1024.7 hPa SW 3.2 km/h 14.5 km/h 82% 0.0 mm 0 W/m2
21:09 10.1 °C 7.2 °C 1024.7 hPa SW 4.7 km/h 11.3 km/h 82% 0.0 mm 0 W/m2
21:14 9.9 °C 7.1 °C 1024.7 hPa West 6.4 km/h 11.3 km/h 83% 0.0 mm 0 W/m2
21:19 9.9 °C 7.1 °C 1024.7 hPa West 3.2 km/h 6.4 km/h 83% 0.0 mm 0 W/m2
21:24 9.9 °C 7.1 °C 1024.7 hPa West 9.7 km/h 17.7 km/h 83% 0.0 mm 0 W/m2
21:29 9.9 °C 7.1 °C 1025.1 hPa WSW 3.2 km/h 14.5 km/h 83% 0.0 mm 0 W/m2
21:34 9.9 °C 7.1 °C 1025.1 hPa WSW 3.2 km/h 17.7 km/h 83% 0.0 mm 0 W/m2
21:39 9.9 °C 7.3 °C 1025.1 hPa West 6.4 km/h 14.5 km/h 84% 0.0 mm 0 W/m2
21:44 9.9 °C 7.3 °C 1025.1 hPa NW 3.2 km/h 12.9 km/h 84% 0.0 mm 0 W/m2
21:49 9.9 °C 7.3 °C 1025.1 hPa WSW 6.4 km/h 14.5 km/h 84% 0.0 mm 0 W/m2
21:54 9.9 °C 7.3 °C 1025.1 hPa NW 6.4 km/h 11.3 km/h 84% 0.0 mm 0 W/m2
21:59 9.8 °C 7.4 °C 1025.1 hPa West 6.4 km/h 12.9 km/h 85% 0.0 mm 0 W/m2
22:04 9.8 °C 7.4 °C 1025.4 hPa West 4.7 km/h 14.5 km/h 85% 0.0 mm 0 W/m2
22:09 9.8 °C 7.4 °C 1025.4 hPa NW 3.2 km/h 9.7 km/h 85% 0.0 mm 0 W/m2
22:14 9.7 °C 7.5 °C 1025.4 hPa West 9.7 km/h 12.9 km/h 86% 0.0 mm 0 W/m2
22:19 9.7 °C 7.5 °C 1025.4 hPa West 16.3 km/h 16.1 km/h 86% 0.0 mm 0 W/m2
22:24 9.7 °C 7.5 °C 1025.4 hPa WNW 4.7 km/h 12.9 km/h 86% 0.0 mm 0 W/m2
22:29 9.7 °C 7.5 °C 1025.7 hPa WSW 7.9 km/h 17.7 km/h 86% 0.0 mm 0 W/m2
22:34 9.7 °C 7.5 °C 1025.7 hPa WNW 4.7 km/h 8 km/h 86% 0.0 mm 0 W/m2
22:39 9.6 °C 7.4 °C 1025.7 hPa SW 4.7 km/h 17.7 km/h 86% 0.0 mm 0 W/m2
22:44 9.6 °C 7.4 °C 1025.7 hPa WNW 4.7 km/h 11.3 km/h 86% 0.0 mm 0 W/m2
22:49 9.6 °C 7.5 °C 1026.1 hPa WNW 9.7 km/h 14.5 km/h 87% 0.0 mm 0 W/m2
22:54 9.5 °C 7.4 °C 1026.1 hPa West 6.4 km/h 16.1 km/h 87% 0.0 mm 0 W/m2
22:59 9.5 °C 7.4 °C 1026.1 hPa West 3.2 km/h 9.7 km/h 87% 0.0 mm 0 W/m2
23:04 9.4 °C 7.3 °C 1026.1 hPa WSW 4.7 km/h 16.1 km/h 87% 0.0 mm 0 W/m2
23:09 9.4 °C 7.3 °C 1026.1 hPa WNW 6.4 km/h 6.4 km/h 87% 0.0 mm 0 W/m2
23:14 9.3 °C 7.2 °C 1026.1 hPa WNW 4.7 km/h 11.3 km/h 87% 0.0 mm 0 W/m2
23:19 9.3 °C 7.4 °C 1026.1 hPa WNW 4.7 km/h 4.8 km/h 88% 0.0 mm 0 W/m2
23:24 9.2 °C 7.3 °C 1026.4 hPa West 9.7 km/h 12.9 km/h 88% 0.0 mm 0 W/m2
23:29 9.2 °C 7.3 °C 1026.4 hPa NW 3.2 km/h 8 km/h 88% 0.0 mm 0 W/m2
23:34 9.1 °C 7.2 °C 1026.4 hPa West 3.2 km/h 12.9 km/h 88% 0.0 mm 0 W/m2
23:39 9.1 °C 7.2 °C 1026.4 hPa WNW 4.7 km/h 14.5 km/h 88% 0.0 mm 0 W/m2
23:44 9.1 °C 7.4 °C 1026.4 hPa West 4.7 km/h 6.4 km/h 89% 0.0 mm 0 W/m2
23:49 8.9 °C 7 °C 1026.4 hPa SSW 7.9 km/h 14.5 km/h 88% 0.0 mm 0 W/m2
23:54 8.9 °C 7.2 °C 1026.4 hPa WNW 4.7 km/h 16.1 km/h 89% 0.0 mm 0 W/m2
23:59 8.8 °C 7.1 °C 1026.8 hPa WNW 3.2 km/h 11.3 km/h 89% 0.0 mm 0 W/m2
Juneau County Weather
Compliments of Weather Underground - 4 mb